createdAt,value
2023-05-22T00:02:12.634Z,6.67
2023-05-22T00:07:05.146Z,7.10
2023-05-22T00:11:57.300Z,7.07
2023-05-22T00:16:50.330Z,6.93
2023-05-22T00:21:46.952Z,7.13
2023-05-22T00:26:39.031Z,7.00
2023-05-22T00:31:31.586Z,7.00
2023-05-22T00:36:24.796Z,7.33
2023-05-22T00:41:16.929Z,7.17
2023-05-22T00:46:12.714Z,6.63
2023-05-22T00:51:05.716Z,7.17
2023-05-22T00:56:00.416Z,7.13
2023-05-22T01:00:52.545Z,7.07
2023-05-22T01:12:30.523Z,7.03
2023-05-22T01:17:35.037Z,6.77
2023-05-22T01:23:00.257Z,7.87
2023-05-22T01:28:26.198Z,8.10
2023-05-22T01:33:20.508Z,6.93
2023-05-22T01:38:13.240Z,7.53
2023-05-22T01:43:05.436Z,7.00
2023-05-22T01:47:58.362Z,6.63
2023-05-22T01:53:01.616Z,7.20
2023-05-22T01:58:19.504Z,6.60
2023-05-22T02:03:19.208Z,7.30
2023-05-22T02:08:13.560Z,7.80
2023-05-22T02:13:07.081Z,7.73
2023-05-22T02:18:00.501Z,7.20
2023-05-22T02:22:52.832Z,7.40
2023-05-22T02:27:47.143Z,7.20
2023-05-22T02:32:40.042Z,7.50
2023-05-22T02:37:32.465Z,6.67
2023-05-22T02:42:24.613Z,7.37
2023-05-22T02:47:17.488Z,7.20
2023-05-22T02:52:10.439Z,7.40
2023-05-22T02:57:02.976Z,7.50
2023-05-22T03:01:55.377Z,7.33
2023-05-22T03:06:49.027Z,8.73
2023-05-22T03:11:40.999Z,7.37
2023-05-22T03:16:34.631Z,8.60
2023-05-22T03:21:27.120Z,7.20
2023-05-22T03:26:19.503Z,7.33
2023-05-22T03:31:11.643Z,7.40
2023-05-22T03:36:21.732Z,7.23
2023-05-22T03:41:15.526Z,8.40
2023-05-22T03:46:07.930Z,7.87
2023-05-22T03:51:00.106Z,8.40
2023-05-22T03:55:52.205Z,7.60
2023-05-22T04:00:44.254Z,8.00
2023-05-22T04:05:36.320Z,8.30
2023-05-22T04:10:28.450Z,7.87
2023-05-22T04:15:21.982Z,8.13
2023-05-22T04:20:14.207Z,7.00
2023-05-22T04:25:06.717Z,6.90
2023-05-22T04:30:02.375Z,7.00
2023-05-22T04:34:54.418Z,6.87
2023-05-22T04:39:47.256Z,7.37
2023-05-22T04:44:39.326Z,6.43
2023-05-22T04:49:32.061Z,6.43
2023-05-22T04:54:24.806Z,6.63
2023-05-22T04:59:17.081Z,6.67
2023-05-22T05:04:09.763Z,6.43
2023-05-22T05:09:02.109Z,6.30
2023-05-22T05:13:54.568Z,6.53
2023-05-22T05:18:46.676Z,6.00
2023-05-22T05:23:39.058Z,6.13
2023-05-22T05:28:31.257Z,6.00
2023-05-22T05:33:25.505Z,6.23
2023-05-22T05:38:27.338Z,5.90
2023-05-22T05:43:20.805Z,6.70
2023-05-22T05:48:15.338Z,6.90
2023-05-22T05:53:11.308Z,6.33
2023-05-22T05:58:06.278Z,7.70
2023-05-22T06:03:11.348Z,6.70
2023-05-22T06:08:17.030Z,5.60
2023-05-22T06:13:09.595Z,6.10
2023-05-22T06:18:02.755Z,7.13
2023-05-22T06:22:54.949Z,6.05
2023-05-22T06:27:47.522Z,5.97
2023-05-22T06:32:41.889Z,5.70
2023-05-22T06:37:36.011Z,5.50
2023-05-22T06:42:28.856Z,5.43
2023-05-22T06:47:55.003Z,5.85
2023-05-22T06:52:49.003Z,5.90
2023-05-22T06:57:41.744Z,5.28
2023-05-22T07:02:34.505Z,4.95
2023-05-22T07:07:41.517Z,4.80
2023-05-22T07:12:34.183Z,5.03
2023-05-22T07:17:26.858Z,4.10
2023-05-22T07:22:21.420Z,5.25
2023-05-22T07:27:14.499Z,3.72
2023-05-22T07:32:07.097Z,4.38
2023-05-22T07:37:01.491Z,3.90
2023-05-22T07:41:56.045Z,3.70
2023-05-22T07:46:49.560Z,3.58
2023-05-22T07:51:47.173Z,3.63
2023-05-22T07:56:47.927Z,3.80
2023-05-22T08:01:42.653Z,3.78
2023-05-22T08:06:37.556Z,3.45
2023-05-22T08:11:30.223Z,3.78
2023-05-22T08:16:23.986Z,2.78
2023-05-22T08:21:16.381Z,2.75
2023-05-22T08:26:11.157Z,3.05
2023-05-22T08:31:03.356Z,2.80
2023-05-22T08:35:55.489Z,3.17
2023-05-22T08:40:51.478Z,2.75
2023-05-22T08:45:44.170Z,2.92
2023-05-22T08:50:42.551Z,3.50
2023-05-22T08:55:35.011Z,3.50
2023-05-22T09:00:27.347Z,3.60
2023-05-22T09:05:19.417Z,3.25
2023-05-22T09:10:11.868Z,4.43
2023-05-22T09:15:10.451Z,4.38
2023-05-22T09:20:04.816Z,3.47
2023-05-22T09:24:59.308Z,3.55
2023-05-22T09:29:53.327Z,4.10
2023-05-22T09:34:47.028Z,3.65
2023-05-22T09:39:48.465Z,3.25
2023-05-22T09:44:42.608Z,3.20
2023-05-22T09:49:45.475Z,3.50
2023-05-22T09:54:49.685Z,3.28
2023-05-22T09:59:48.548Z,3.45
2023-05-22T10:04:42.710Z,3.40
2023-05-22T10:09:36.795Z,3.03
2023-05-22T10:14:30.914Z,3.38
2023-05-22T10:19:27.250Z,3.15
2023-05-22T10:24:20.197Z,3.85
2023-05-22T10:29:19.987Z,3.20
2023-05-22T10:34:39.061Z,3.08
2023-05-22T10:39:41.618Z,3.40
2023-05-22T10:44:33.919Z,3.13
2023-05-22T10:49:26.704Z,2.85
2023-05-22T10:54:18.737Z,3.20
2023-05-22T10:59:10.991Z,2.90
2023-05-22T11:04:08.905Z,2.75
2023-05-22T11:09:16.816Z,2.72
2023-05-22T11:14:11.065Z,2.70
2023-05-22T11:19:22.837Z,2.45
2023-05-22T11:24:18.368Z,2.40
2023-05-22T11:29:11.002Z,2.72
2023-05-22T11:34:03.924Z,2.80
2023-05-22T11:39:00.389Z,3.15
2023-05-22T11:43:52.643Z,2.95
2023-05-22T11:48:44.883Z,3.33
2023-05-22T11:53:37.553Z,3.80
2023-05-22T11:58:30.946Z,4.17
2023-05-22T12:08:16.905Z,3.47
2023-05-22T12:13:09.270Z,2.97
2023-05-22T12:18:01.405Z,3.80
2023-05-22T12:22:56.314Z,2.97
2023-05-22T12:27:48.375Z,2.93
2023-05-22T12:32:40.932Z,2.73
2023-05-22T12:37:34.057Z,3.10
2023-05-22T12:42:30.408Z,2.77
2023-05-22T12:47:24.070Z,2.83
2023-05-22T12:52:16.565Z,3.80
2023-05-22T12:57:08.966Z,2.97
2023-05-22T13:02:03.197Z,2.93
2023-05-22T13:06:55.354Z,5.20
2023-05-22T13:11:48.343Z,3.10
2023-05-22T13:16:40.751Z,3.43
2023-05-22T13:21:33.395Z,3.63
2023-05-22T13:26:26.439Z,3.43
2023-05-22T13:31:18.994Z,3.13
2023-05-22T13:36:11.478Z,3.50
2023-05-22T13:41:03.755Z,3.57
2023-05-22T13:45:56.027Z,3.00
2023-05-22T13:50:48.304Z,3.07
2023-05-22T13:55:40.658Z,3.90
2023-05-22T14:00:32.965Z,3.77
2023-05-22T14:05:25.588Z,3.07
2023-05-22T14:10:17.748Z,3.10
2023-05-22T14:15:10.300Z,3.47
2023-05-22T14:20:04.176Z,3.30
2023-05-22T14:24:56.958Z,3.20
2023-05-22T14:29:49.050Z,3.47
2023-05-22T14:34:41.108Z,2.90
2023-05-22T14:39:34.532Z,4.03
2023-05-22T14:44:27.003Z,3.20
2023-05-22T14:49:19.136Z,3.20
2023-05-22T14:54:12.653Z,3.60
2023-05-22T14:59:05.628Z,3.10
2023-05-22T15:03:57.730Z,3.03
2023-05-22T15:08:49.828Z,2.90
2023-05-22T15:13:41.839Z,2.90
2023-05-22T15:18:33.930Z,2.87
2023-05-22T15:23:26.964Z,3.10
2023-05-22T15:28:19.796Z,3.00
2023-05-22T15:33:12.016Z,3.30
2023-05-22T15:38:04.204Z,3.00
2023-05-22T15:42:56.838Z,3.17
2023-05-22T15:47:49.023Z,3.10
2023-05-22T15:52:42.445Z,3.47
2023-05-22T15:57:34.436Z,2.83
2023-05-22T16:02:27.092Z,2.70
2023-05-22T16:07:20.177Z,3.30
2023-05-22T16:12:12.494Z,2.93
2023-05-22T16:17:04.721Z,3.33
2023-05-22T16:21:56.892Z,2.90
2023-05-22T16:26:48.970Z,2.63
2023-05-22T16:31:41.218Z,2.77
2023-05-22T16:36:33.564Z,2.50
2023-05-22T16:41:26.500Z,3.20
2023-05-22T16:46:18.786Z,2.77
2023-05-22T16:51:11.571Z,2.80
2023-05-22T16:56:05.164Z,2.97
2023-05-22T17:00:57.174Z,2.57
2023-05-22T17:05:49.702Z,2.97
2023-05-22T17:10:41.751Z,2.33
2023-05-22T17:15:34.258Z,2.70
2023-05-22T17:20:26.910Z,2.70
2023-05-22T17:25:20.288Z,2.70
2023-05-22T17:30:12.525Z,2.90
2023-05-22T17:35:06.618Z,3.30
2023-05-22T17:39:59.165Z,3.10
2023-05-22T17:44:51.484Z,2.87
2023-05-22T17:49:43.551Z,3.10
2023-05-22T17:54:36.011Z,3.00
2023-05-22T17:59:28.355Z,3.20
2023-05-22T18:04:20.570Z,3.10
2023-05-22T18:09:12.590Z,2.97
2023-05-22T18:14:04.716Z,6.07
2023-05-22T18:18:56.855Z,3.13
2023-05-22T18:23:49.013Z,3.40
2023-05-22T18:28:42.499Z,4.27
2023-05-22T18:33:34.737Z,3.63
2023-05-22T18:38:27.461Z,3.23
2023-05-22T18:43:23.874Z,3.43
2023-05-22T18:48:16.221Z,3.70
2023-05-22T18:53:08.532Z,2.67
2023-05-22T18:58:00.761Z,3.13
2023-05-22T19:02:52.893Z,3.30
2023-05-22T19:07:45.163Z,3.10
2023-05-22T19:12:37.371Z,3.30
2023-05-22T19:17:29.530Z,2.90
2023-05-22T19:22:21.611Z,3.43
2023-05-22T19:27:13.758Z,3.30
2023-05-22T19:32:06.243Z,3.30
2023-05-22T19:36:58.417Z,3.33
2023-05-22T19:41:54.580Z,3.17
2023-05-22T19:46:46.725Z,3.30
2023-05-22T19:51:39.441Z,3.70
2023-05-22T19:56:34.946Z,3.03
2023-05-22T20:01:27.181Z,3.37
2023-05-22T20:06:19.213Z,3.73
2023-05-22T20:11:11.264Z,3.50
2023-05-22T20:16:03.683Z,3.20
2023-05-22T20:20:55.792Z,2.80
2023-05-22T20:25:47.942Z,3.90
2023-05-22T20:30:40.021Z,2.90
2023-05-22T20:35:32.259Z,3.60
2023-05-22T20:40:26.493Z,3.33
2023-05-22T20:45:20.311Z,3.47
2023-05-22T20:50:12.439Z,3.57
2023-05-22T20:55:06.356Z,3.47
2023-05-22T20:59:58.638Z,3.27
2023-05-22T21:04:50.892Z,5.00
2023-05-22T21:09:42.971Z,3.60
2023-05-22T21:14:35.369Z,3.10
2023-05-22T21:19:27.401Z,3.70
2023-05-22T21:24:19.753Z,3.13
2023-05-22T21:29:11.755Z,3.20
2023-05-22T21:34:03.914Z,3.50
2023-05-22T21:38:57.733Z,3.07
2023-05-22T21:43:49.786Z,3.70
2023-05-22T21:48:41.847Z,3.20
2023-05-22T21:53:33.848Z,2.83
2023-05-22T21:58:25.975Z,3.00
2023-05-22T22:03:18.157Z,3.30
2023-05-22T22:08:10.363Z,3.27
2023-05-22T22:13:02.703Z,3.77
2023-05-22T22:17:59.573Z,3.20
2023-05-22T22:22:51.965Z,3.43
2023-05-22T22:27:44.029Z,2.87
2023-05-22T22:32:37.404Z,3.33
2023-05-22T22:37:29.646Z,3.50
2023-05-22T22:42:21.897Z,3.20
2023-05-22T22:47:14.068Z,2.90
2023-05-22T22:52:06.338Z,3.57
2023-05-22T22:56:58.546Z,3.37
2023-05-22T23:01:50.927Z,3.20
2023-05-22T23:06:43.140Z,3.40
2023-05-22T23:11:37.766Z,3.47
2023-05-22T23:16:31.359Z,4.30
2023-05-22T23:21:23.506Z,3.90
2023-05-22T23:26:15.712Z,4.07
2023-05-22T23:31:09.767Z,3.47
2023-05-22T23:36:02.203Z,4.40
2023-05-22T23:40:54.325Z,4.20
2023-05-22T23:45:46.379Z,4.20
2023-05-22T23:50:38.430Z,3.67
2023-05-22T23:55:30.543Z,4.13
